sensor_id;sensor_type;location;lat;lon;timestamp;P1;durP1;ratioP1;P2;durP2;ratioP2
1416;SDS011;703;51.162;13.574;2024-03-08T00:01:39;18.20;;;16.33;;
1416;SDS011;703;51.162;13.574;2024-03-08T00:04:05;21.70;;;16.53;;
1416;SDS011;703;51.162;13.574;2024-03-08T00:06:31;26.17;;;19.00;;
1416;SDS011;703;51.162;13.574;2024-03-08T00:08:57;20.73;;;16.47;;
1416;SDS011;703;51.162;13.574;2024-03-08T00:11:23;22.57;;;18.43;;
1416;SDS011;703;51.162;13.574;2024-03-08T00:13:52;17.30;;;15.40;;
1416;SDS011;703;51.162;13.574;2024-03-08T00:16:18;13.23;;;12.07;;
1416;SDS011;703;51.162;13.574;2024-03-08T00:18:44;22.67;;;20.13;;
1416;SDS011;703;51.162;13.574;2024-03-08T00:21:10;19.00;;;15.77;;
1416;SDS011;703;51.162;13.574;2024-03-08T00:23:37;20.73;;;16.57;;
1416;SDS011;703;51.162;13.574;2024-03-08T00:26:03;19.80;;;17.77;;
1416;SDS011;703;51.162;13.574;2024-03-08T00:28:29;17.67;;;15.97;;
1416;SDS011;703;51.162;13.574;2024-03-08T00:30:55;14.00;;;12.70;;
1416;SDS011;703;51.162;13.574;2024-03-08T00:33:21;17.20;;;15.50;;
1416;SDS011;703;51.162;13.574;2024-03-08T00:35:47;25.30;;;18.13;;
1416;SDS011;703;51.162;13.574;2024-03-08T00:38:13;18.03;;;16.57;;
1416;SDS011;703;51.162;13.574;2024-03-08T00:40:39;21.30;;;15.70;;
1416;SDS011;703;51.162;13.574;2024-03-08T00:43:05;17.50;;;15.57;;
1416;SDS011;703;51.162;13.574;2024-03-08T00:45:31;19.33;;;13.90;;
1416;SDS011;703;51.162;13.574;2024-03-08T00:47:57;21.67;;;19.57;;
1416;SDS011;703;51.162;13.574;2024-03-08T00:50:23;17.87;;;16.07;;
1416;SDS011;703;51.162;13.574;2024-03-08T00:52:49;15.17;;;13.93;;
1416;SDS011;703;51.162;13.574;2024-03-08T00:55:15;17.00;;;15.80;;
1416;SDS011;703;51.162;13.574;2024-03-08T00:57:41;20.47;;;16.27;;
1416;SDS011;703;51.162;13.574;2024-03-08T01:00:07;16.60;;;14.93;;
1416;SDS011;703;51.162;13.574;2024-03-08T01:02:36;28.00;;;19.97;;
1416;SDS011;703;51.162;13.574;2024-03-08T01:05:02;18.00;;;16.50;;
1416;SDS011;703;51.162;13.574;2024-03-08T01:07:31;24.83;;;15.90;;
1416;SDS011;703;51.162;13.574;2024-03-08T01:09:56;20.90;;;18.77;;
1416;SDS011;703;51.162;13.574;2024-03-08T01:12:22;17.10;;;14.70;;
1416;SDS011;703;51.162;13.574;2024-03-08T01:14:48;20.73;;;18.33;;
1416;SDS011;703;51.162;13.574;2024-03-08T01:17:14;18.53;;;15.57;;
1416;SDS011;703;51.162;13.574;2024-03-08T01:19:40;18.17;;;14.77;;
1416;SDS011;703;51.162;13.574;2024-03-08T01:22:06;16.87;;;15.43;;
1416;SDS011;703;51.162;13.574;2024-03-08T01:24:32;16.73;;;15.37;;
1416;SDS011;703;51.162;13.574;2024-03-08T01:26:59;19.87;;;18.37;;
1416;SDS011;703;51.162;13.574;2024-03-08T01:29:26;20.60;;;18.50;;
1416;SDS011;703;51.162;13.574;2024-03-08T01:31:54;20.37;;;17.33;;
1416;SDS011;703;51.162;13.574;2024-03-08T01:34:21;17.27;;;15.73;;
1416;SDS011;703;51.162;13.574;2024-03-08T01:36:47;18.90;;;16.50;;
1416;SDS011;703;51.162;13.574;2024-03-08T01:39:13;20.80;;;16.40;;
1416;SDS011;703;51.162;13.574;2024-03-08T01:41:39;23.30;;;18.10;;
1416;SDS011;703;51.162;13.574;2024-03-08T01:44:05;16.37;;;14.93;;
1416;SDS011;703;51.162;13.574;2024-03-08T01:46:32;23.13;;;15.63;;
1416;SDS011;703;51.162;13.574;2024-03-08T01:48:58;19.13;;;17.37;;
1416;SDS011;703;51.162;13.574;2024-03-08T01:51:29;18.80;;;16.17;;
1416;SDS011;703;51.162;13.574;2024-03-08T01:53:56;18.50;;;16.70;;
1416;SDS011;703;51.162;13.574;2024-03-08T01:56:25;21.10;;;18.93;;
1416;SDS011;703;51.162;13.574;2024-03-08T01:58:51;24.80;;;17.57;;
1416;SDS011;703;51.162;13.574;2024-03-08T02:01:17;30.83;;;14.80;;
1416;SDS011;703;51.162;13.574;2024-03-08T02:03:44;20.97;;;18.20;;
1416;SDS011;703;51.162;13.574;2024-03-08T02:06:11;17.97;;;16.10;;
1416;SDS011;703;51.162;13.574;2024-03-08T02:08:38;29.83;;;19.97;;
1416;SDS011;703;51.162;13.574;2024-03-08T02:11:04;19.30;;;17.43;;
1416;SDS011;703;51.162;13.574;2024-03-08T02:13:30;21.37;;;19.27;;
1416;SDS011;703;51.162;13.574;2024-03-08T02:15:57;21.27;;;17.37;;
1416;SDS011;703;51.162;13.574;2024-03-08T02:18:27;20.33;;;18.27;;
1416;SDS011;703;51.162;13.574;2024-03-08T02:20:57;18.67;;;17.13;;
1416;SDS011;703;51.162;13.574;2024-03-08T02:23:23;22.17;;;19.80;;
1416;SDS011;703;51.162;13.574;2024-03-08T02:25:50;20.67;;;18.57;;
1416;SDS011;703;51.162;13.574;2024-03-08T02:28:16;24.77;;;18.03;;
1416;SDS011;703;51.162;13.574;2024-03-08T02:30:43;20.87;;;18.47;;
1416;SDS011;703;51.162;13.574;2024-03-08T02:33:12;43.40;;;18.80;;
1416;SDS011;703;51.162;13.574;2024-03-08T02:35:41;24.97;;;19.37;;
1416;SDS011;703;51.162;13.574;2024-03-08T02:38:07;19.87;;;18.10;;
1416;SDS011;703;51.162;13.574;2024-03-08T02:40:33;21.37;;;19.33;;
1416;SDS011;703;51.162;13.574;2024-03-08T02:42:59;21.87;;;18.50;;
1416;SDS011;703;51.162;13.574;2024-03-08T02:45:25;20.00;;;16.83;;
1416;SDS011;703;51.162;13.574;2024-03-08T02:47:51;21.93;;;18.07;;
1416;SDS011;703;51.162;13.574;2024-03-08T02:50:17;20.80;;;19.00;;
1416;SDS011;703;51.162;13.574;2024-03-08T02:52:43;20.83;;;18.77;;
1416;SDS011;703;51.162;13.574;2024-03-08T02:55:11;23.83;;;19.07;;
1416;SDS011;703;51.162;13.574;2024-03-08T02:57:40;25.00;;;18.63;;
1416;SDS011;703;51.162;13.574;2024-03-08T03:00:06;20.97;;;18.90;;
1416;SDS011;703;51.162;13.574;2024-03-08T03:02:36;20.57;;;18.47;;
1416;SDS011;703;51.162;13.574;2024-03-08T03:05:02;16.13;;;14.33;;
1416;SDS011;703;51.162;13.574;2024-03-08T03:07:31;25.43;;;18.00;;
1416;SDS011;703;51.162;13.574;2024-03-08T03:09:58;25.80;;;20.10;;
1416;SDS011;703;51.162;13.574;2024-03-08T03:12:24;18.43;;;16.83;;
1416;SDS011;703;51.162;13.574;2024-03-08T03:14:50;24.40;;;15.43;;
1416;SDS011;703;51.162;13.574;2024-03-08T03:17:15;25.50;;;18.80;;
1416;SDS011;703;51.162;13.574;2024-03-08T03:19:41;22.30;;;19.13;;
1416;SDS011;703;51.162;13.574;2024-03-08T03:22:07;28.83;;;17.57;;
1416;SDS011;703;51.162;13.574;2024-03-08T03:24:35;23.13;;;20.93;;
1416;SDS011;703;51.162;13.574;2024-03-08T03:27:03;18.40;;;16.90;;
1416;SDS011;703;51.162;13.574;2024-03-08T03:29:36;18.53;;;16.90;;
1416;SDS011;703;51.162;13.574;2024-03-08T03:32:02;19.10;;;17.57;;
1416;SDS011;703;51.162;13.574;2024-03-08T03:34:29;18.50;;;16.73;;
1416;SDS011;703;51.162;13.574;2024-03-08T03:36:55;19.13;;;17.03;;
1416;SDS011;703;51.162;13.574;2024-03-08T03:39:21;17.37;;;15.97;;
1416;SDS011;703;51.162;13.574;2024-03-08T03:41:47;18.13;;;16.43;;
1416;SDS011;703;51.162;13.574;2024-03-08T03:44:16;17.67;;;15.97;;
1416;SDS011;703;51.162;13.574;2024-03-08T03:46:42;18.33;;;16.83;;
1416;SDS011;703;51.162;13.574;2024-03-08T03:49:11;22.93;;;15.70;;
1416;SDS011;703;51.162;13.574;2024-03-08T03:51:37;18.57;;;17.10;;
1416;SDS011;703;51.162;13.574;2024-03-08T03:54:04;23.20;;;20.83;;
1416;SDS011;703;51.162;13.574;2024-03-08T03:56:29;18.80;;;17.50;;
1416;SDS011;703;51.162;13.574;2024-03-08T03:58:55;18.70;;;17.10;;
1416;SDS011;703;51.162;13.574;2024-03-08T04:01:22;21.33;;;19.90;;
1416;SDS011;703;51.162;13.574;2024-03-08T04:03:48;16.97;;;15.57;;
1416;SDS011;703;51.162;13.574;2024-03-08T04:06:14;19.10;;;17.17;;
1416;SDS011;703;51.162;13.574;2024-03-08T04:08:40;22.13;;;20.07;;
1416;SDS011;703;51.162;13.574;2024-03-08T04:11:07;19.77;;;18.10;;
1416;SDS011;703;51.162;13.574;2024-03-08T04:13:36;17.17;;;15.77;;
1416;SDS011;703;51.162;13.574;2024-03-08T04:16:02;23.03;;;21.00;;
1416;SDS011;703;51.162;13.574;2024-03-08T04:18:28;26.50;;;18.23;;
1416;SDS011;703;51.162;13.574;2024-03-08T04:20:54;24.73;;;22.37;;
1416;SDS011;703;51.162;13.574;2024-03-08T04:23:20;25.63;;;17.10;;
1416;SDS011;703;51.162;13.574;2024-03-08T04:25:45;20.60;;;18.60;;
1416;SDS011;703;51.162;13.574;2024-03-08T04:28:11;30.40;;;17.07;;
1416;SDS011;703;51.162;13.574;2024-03-08T04:30:38;24.43;;;20.03;;
1416;SDS011;703;51.162;13.574;2024-03-08T04:33:07;30.87;;;20.60;;
1416;SDS011;703;51.162;13.574;2024-03-08T04:35:33;35.00;;;20.80;;
1416;SDS011;703;51.162;13.574;2024-03-08T04:37:59;16.87;;;15.37;;
1416;SDS011;703;51.162;13.574;2024-03-08T04:40:25;17.30;;;16.03;;
1416;SDS011;703;51.162;13.574;2024-03-08T04:42:51;17.13;;;15.40;;
1416;SDS011;703;51.162;13.574;2024-03-08T04:45:17;20.60;;;19.00;;
1416;SDS011;703;51.162;13.574;2024-03-08T04:47:43;21.93;;;19.80;;
1416;SDS011;703;51.162;13.574;2024-03-08T04:50:09;20.63;;;18.77;;
1416;SDS011;703;51.162;13.574;2024-03-08T04:52:36;21.63;;;19.60;;
1416;SDS011;703;51.162;13.574;2024-03-08T04:55:02;24.10;;;21.70;;
1416;SDS011;703;51.162;13.574;2024-03-08T04:57:30;20.17;;;18.40;;
1416;SDS011;703;51.162;13.574;2024-03-08T04:59:55;24.20;;;21.63;;
1416;SDS011;703;51.162;13.574;2024-03-08T05:02:23;23.03;;;20.90;;
1416;SDS011;703;51.162;13.574;2024-03-08T05:04:49;20.73;;;17.70;;
1416;SDS011;703;51.162;13.574;2024-03-08T05:07:15;19.40;;;17.60;;
1416;SDS011;703;51.162;13.574;2024-03-08T05:09:41;22.60;;;19.47;;
1416;SDS011;703;51.162;13.574;2024-03-08T05:12:07;18.20;;;16.30;;
1416;SDS011;703;51.162;13.574;2024-03-08T05:14:33;23.97;;;16.83;;
1416;SDS011;703;51.162;13.574;2024-03-08T05:17:00;27.10;;;18.67;;
1416;SDS011;703;51.162;13.574;2024-03-08T05:19:26;22.70;;;14.37;;
1416;SDS011;703;51.162;13.574;2024-03-08T05:21:52;16.00;;;14.77;;
1416;SDS011;703;51.162;13.574;2024-03-08T05:24:18;18.57;;;16.97;;
1416;SDS011;703;51.162;13.574;2024-03-08T05:26:44;26.00;;;20.23;;
1416;SDS011;703;51.162;13.574;2024-03-08T05:29:10;22.47;;;18.80;;
1416;SDS011;703;51.162;13.574;2024-03-08T05:31:50;21.83;;;16.80;;
1416;SDS011;703;51.162;13.574;2024-03-08T05:34:20;23.77;;;21.63;;
1416;SDS011;703;51.162;13.574;2024-03-08T05:36:47;23.23;;;20.60;;
1416;SDS011;703;51.162;13.574;2024-03-08T05:39:14;31.07;;;20.20;;
1416;SDS011;703;51.162;13.574;2024-03-08T05:41:40;22.57;;;17.50;;
1416;SDS011;703;51.162;13.574;2024-03-08T05:44:07;25.27;;;22.83;;
1416;SDS011;703;51.162;13.574;2024-03-08T05:46:33;23.30;;;21.03;;
1416;SDS011;703;51.162;13.574;2024-03-08T05:48:59;22.17;;;18.40;;
1416;SDS011;703;51.162;13.574;2024-03-08T05:51:28;24.07;;;18.37;;
1416;SDS011;703;51.162;13.574;2024-03-08T05:53:53;29.60;;;25.30;;
1416;SDS011;703;51.162;13.574;2024-03-08T05:56:20;22.80;;;20.93;;
1416;SDS011;703;51.162;13.574;2024-03-08T05:58:47;39.33;;;26.50;;
1416;SDS011;703;51.162;13.574;2024-03-08T06:01:15;27.23;;;23.07;;
1416;SDS011;703;51.162;13.574;2024-03-08T06:03:41;23.90;;;21.90;;
1416;SDS011;703;51.162;13.574;2024-03-08T06:06:12;22.17;;;20.20;;
1416;SDS011;703;51.162;13.574;2024-03-08T06:08:38;39.20;;;24.83;;
1416;SDS011;703;51.162;13.574;2024-03-08T06:11:04;20.93;;;19.20;;
1416;SDS011;703;51.162;13.574;2024-03-08T06:13:31;25.13;;;22.57;;
1416;SDS011;703;51.162;13.574;2024-03-08T06:15:57;31.33;;;23.70;;
1416;SDS011;703;51.162;13.574;2024-03-08T06:18:23;30.43;;;21.30;;
1416;SDS011;703;51.162;13.574;2024-03-08T06:20:49;21.20;;;19.20;;
1416;SDS011;703;51.162;13.574;2024-03-08T06:23:14;24.00;;;21.93;;
1416;SDS011;703;51.162;13.574;2024-03-08T06:25:46;21.67;;;19.90;;
1416;SDS011;703;51.162;13.574;2024-03-08T06:28:12;23.80;;;21.07;;
1416;SDS011;703;51.162;13.574;2024-03-08T06:30:39;24.00;;;21.90;;
1416;SDS011;703;51.162;13.574;2024-03-08T06:33:05;19.80;;;17.90;;
1416;SDS011;703;51.162;13.574;2024-03-08T06:35:32;23.30;;;21.07;;
1416;SDS011;703;51.162;13.574;2024-03-08T06:37:58;25.27;;;23.27;;
1416;SDS011;703;51.162;13.574;2024-03-08T06:40:24;23.57;;;21.83;;
1416;SDS011;703;51.162;13.574;2024-03-08T06:42:50;24.23;;;21.90;;
1416;SDS011;703;51.162;13.574;2024-03-08T06:45:17;24.83;;;22.43;;
1416;SDS011;703;51.162;13.574;2024-03-08T06:47:45;22.07;;;19.97;;
1416;SDS011;703;51.162;13.574;2024-03-08T06:50:12;26.13;;;23.73;;
1416;SDS011;703;51.162;13.574;2024-03-08T06:52:40;30.40;;;22.50;;
1416;SDS011;703;51.162;13.574;2024-03-08T06:55:07;26.37;;;21.63;;
1416;SDS011;703;51.162;13.574;2024-03-08T06:57:34;22.60;;;20.57;;
1416;SDS011;703;51.162;13.574;2024-03-08T07:00:00;28.90;;;20.57;;
1416;SDS011;703;51.162;13.574;2024-03-08T07:02:26;33.00;;;23.20;;
1416;SDS011;703;51.162;13.574;2024-03-08T07:04:52;27.47;;;23.93;;
1416;SDS011;703;51.162;13.574;2024-03-08T07:07:18;26.93;;;21.63;;
1416;SDS011;703;51.162;13.574;2024-03-08T07:09:47;24.77;;;20.57;;
1416;SDS011;703;51.162;13.574;2024-03-08T07:12:14;27.37;;;23.10;;
1416;SDS011;703;51.162;13.574;2024-03-08T07:14:40;27.47;;;24.90;;
1416;SDS011;703;51.162;13.574;2024-03-08T07:17:09;26.53;;;23.93;;
1416;SDS011;703;51.162;13.574;2024-03-08T07:19:35;21.93;;;20.00;;
1416;SDS011;703;51.162;13.574;2024-03-08T07:22:02;27.03;;;22.33;;
1416;SDS011;703;51.162;13.574;2024-03-08T07:24:28;29.77;;;26.83;;
1416;SDS011;703;51.162;13.574;2024-03-08T07:27:13;25.00;;;21.30;;
1416;SDS011;703;51.162;13.574;2024-03-08T07:29:39;27.37;;;23.00;;
1416;SDS011;703;51.162;13.574;2024-03-08T07:32:05;34.20;;;21.57;;
1416;SDS011;703;51.162;13.574;2024-03-08T07:34:47;27.63;;;21.47;;
1416;SDS011;703;51.162;13.574;2024-03-08T07:37:13;34.13;;;24.67;;
1416;SDS011;703;51.162;13.574;2024-03-08T07:39:39;25.00;;;22.40;;
1416;SDS011;703;51.162;13.574;2024-03-08T07:42:05;27.27;;;19.90;;
1416;SDS011;703;51.162;13.574;2024-03-08T07:44:31;27.30;;;21.03;;
1416;SDS011;703;51.162;13.574;2024-03-08T07:46:58;26.60;;;23.43;;
1416;SDS011;703;51.162;13.574;2024-03-08T07:49:24;24.77;;;22.07;;
1416;SDS011;703;51.162;13.574;2024-03-08T07:51:50;26.33;;;23.93;;
1416;SDS011;703;51.162;13.574;2024-03-08T07:54:16;32.93;;;23.13;;
1416;SDS011;703;51.162;13.574;2024-03-08T07:56:42;28.43;;;25.53;;
1416;SDS011;703;51.162;13.574;2024-03-08T07:59:08;32.80;;;24.00;;
1416;SDS011;703;51.162;13.574;2024-03-08T08:01:36;28.53;;;23.87;;
1416;SDS011;703;51.162;13.574;2024-03-08T08:04:02;34.67;;;25.23;;
1416;SDS011;703;51.162;13.574;2024-03-08T08:06:28;24.70;;;21.80;;
1416;SDS011;703;51.162;13.574;2024-03-08T08:08:58;34.17;;;24.00;;
1416;SDS011;703;51.162;13.574;2024-03-08T08:11:25;34.43;;;24.13;;
1416;SDS011;703;51.162;13.574;2024-03-08T08:13:52;28.23;;;25.30;;
1416;SDS011;703;51.162;13.574;2024-03-08T08:16:19;25.60;;;23.00;;
1416;SDS011;703;51.162;13.574;2024-03-08T08:18:45;25.90;;;21.47;;
1416;SDS011;703;51.162;13.574;2024-03-08T08:21:12;38.67;;;25.30;;
1416;SDS011;703;51.162;13.574;2024-03-08T08:23:38;28.30;;;25.80;;
1416;SDS011;703;51.162;13.574;2024-03-08T08:26:04;25.33;;;22.87;;
1416;SDS011;703;51.162;13.574;2024-03-08T08:28:32;28.10;;;22.47;;
1416;SDS011;703;51.162;13.574;2024-03-08T08:30:58;28.83;;;25.80;;
1416;SDS011;703;51.162;13.574;2024-03-08T08:33:24;23.07;;;20.23;;
1416;SDS011;703;51.162;13.574;2024-03-08T08:35:50;33.20;;;25.17;;
1416;SDS011;703;51.162;13.574;2024-03-08T08:38:19;31.00;;;23.80;;
1416;SDS011;703;51.162;13.574;2024-03-08T08:40:45;28.27;;;22.73;;
1416;SDS011;703;51.162;13.574;2024-03-08T08:43:12;30.37;;;23.13;;
1416;SDS011;703;51.162;13.574;2024-03-08T08:45:38;29.53;;;24.17;;
1416;SDS011;703;51.162;13.574;2024-03-08T08:48:04;25.53;;;21.53;;
1416;SDS011;703;51.162;13.574;2024-03-08T08:50:30;27.90;;;22.77;;
1416;SDS011;703;51.162;13.574;2024-03-08T08:52:57;22.57;;;19.50;;
1416;SDS011;703;51.162;13.574;2024-03-08T08:55:23;29.10;;;22.90;;
1416;SDS011;703;51.162;13.574;2024-03-08T08:57:52;26.70;;;21.40;;
1416;SDS011;703;51.162;13.574;2024-03-08T09:00:19;26.07;;;20.43;;
1416;SDS011;703;51.162;13.574;2024-03-08T09:02:45;37.67;;;20.80;;
1416;SDS011;703;51.162;13.574;2024-03-08T09:05:12;31.83;;;24.80;;
1416;SDS011;703;51.162;13.574;2024-03-08T09:07:41;23.90;;;21.30;;
1416;SDS011;703;51.162;13.574;2024-03-08T09:10:09;25.57;;;18.30;;
1416;SDS011;703;51.162;13.574;2024-03-08T09:12:37;34.30;;;23.77;;
1416;SDS011;703;51.162;13.574;2024-03-08T09:15:04;25.07;;;22.60;;
1416;SDS011;703;51.162;13.574;2024-03-08T09:17:30;27.17;;;19.53;;
1416;SDS011;703;51.162;13.574;2024-03-08T09:19:58;27.70;;;20.37;;
1416;SDS011;703;51.162;13.574;2024-03-08T09:22:24;20.80;;;18.60;;
1416;SDS011;703;51.162;13.574;2024-03-08T09:24:50;26.80;;;20.73;;
1416;SDS011;703;51.162;13.574;2024-03-08T09:27:16;39.87;;;22.47;;
1416;SDS011;703;51.162;13.574;2024-03-08T09:29:43;22.87;;;20.67;;
1416;SDS011;703;51.162;13.574;2024-03-08T09:32:09;27.33;;;20.33;;
1416;SDS011;703;51.162;13.574;2024-03-08T09:34:36;27.57;;;20.50;;
1416;SDS011;703;51.162;13.574;2024-03-08T09:37:02;30.77;;;19.30;;
1416;SDS011;703;51.162;13.574;2024-03-08T09:39:29;29.10;;;22.40;;
1416;SDS011;703;51.162;13.574;2024-03-08T09:41:55;27.73;;;19.90;;
1416;SDS011;703;51.162;13.574;2024-03-08T09:44:21;25.23;;;19.73;;
1416;SDS011;703;51.162;13.574;2024-03-08T09:46:48;28.53;;;20.43;;
1416;SDS011;703;51.162;13.574;2024-03-08T09:49:16;31.30;;;20.37;;
1416;SDS011;703;51.162;13.574;2024-03-08T09:51:42;20.03;;;17.90;;
1416;SDS011;703;51.162;13.574;2024-03-08T09:54:08;21.10;;;18.73;;
1416;SDS011;703;51.162;13.574;2024-03-08T09:56:35;22.30;;;19.93;;
1416;SDS011;703;51.162;13.574;2024-03-08T09:59:01;27.37;;;19.97;;
1416;SDS011;703;51.162;13.574;2024-03-08T10:01:36;25.33;;;20.77;;
1416;SDS011;703;51.162;13.574;2024-03-08T10:04:03;22.67;;;20.57;;
1416;SDS011;703;51.162;13.574;2024-03-08T10:06:29;24.73;;;19.53;;
1416;SDS011;703;51.162;13.574;2024-03-08T10:08:56;22.53;;;19.17;;
1416;SDS011;703;51.162;13.574;2024-03-08T10:11:22;36.70;;;22.60;;
1416;SDS011;703;51.162;13.574;2024-03-08T10:13:48;30.33;;;19.50;;
1416;SDS011;703;51.162;13.574;2024-03-08T10:16:15;26.27;;;22.63;;
1416;SDS011;703;51.162;13.574;2024-03-08T10:18:44;24.60;;;21.23;;
1416;SDS011;703;51.162;13.574;2024-03-08T10:21:10;30.60;;;21.87;;
1416;SDS011;703;51.162;13.574;2024-03-08T10:23:36;28.93;;;19.73;;
1416;SDS011;703;51.162;13.574;2024-03-08T10:26:09;23.80;;;17.57;;
1416;SDS011;703;51.162;13.574;2024-03-08T10:28:36;25.17;;;20.70;;
1416;SDS011;703;51.162;13.574;2024-03-08T10:31:02;30.47;;;18.40;;
1416;SDS011;703;51.162;13.574;2024-03-08T10:33:28;26.13;;;20.60;;
1416;SDS011;703;51.162;13.574;2024-03-08T10:35:54;22.60;;;19.97;;
1416;SDS011;703;51.162;13.574;2024-03-08T10:38:21;18.80;;;16.80;;
1416;SDS011;703;51.162;13.574;2024-03-08T10:40:48;26.73;;;18.53;;
1416;SDS011;703;51.162;13.574;2024-03-08T10:43:18;23.10;;;16.30;;
1416;SDS011;703;51.162;13.574;2024-03-08T10:45:50;19.93;;;16.20;;
1416;SDS011;703;51.162;13.574;2024-03-08T10:50:44;20.33;;;16.60;;
1416;SDS011;703;51.162;13.574;2024-03-08T10:53:11;18.93;;;17.03;;
1416;SDS011;703;51.162;13.574;2024-03-08T10:55:39;21.80;;;17.80;;
1416;SDS011;703;51.162;13.574;2024-03-08T10:58:06;22.80;;;18.57;;
1416;SDS011;703;51.162;13.574;2024-03-08T11:00:32;25.27;;;18.10;;
1416;SDS011;703;51.162;13.574;2024-03-08T11:02:58;27.47;;;18.03;;
1416;SDS011;703;51.162;13.574;2024-03-08T11:08:24;17.10;;;15.30;;
1416;SDS011;703;51.162;13.574;2024-03-08T11:10:50;16.20;;;14.43;;
1416;SDS011;703;51.162;13.574;2024-03-08T11:13:35;17.23;;;15.43;;
1416;SDS011;703;51.162;13.574;2024-03-08T11:16:10;16.20;;;14.63;;
1416;SDS011;703;51.162;13.574;2024-03-08T11:18:37;18.13;;;15.93;;
1416;SDS011;703;51.162;13.574;2024-03-08T11:21:12;24.00;;;17.77;;
1416;SDS011;703;51.162;13.574;2024-03-08T11:23:39;20.10;;;15.53;;
1416;SDS011;703;51.162;13.574;2024-03-08T11:26:17;17.00;;;14.80;;
1416;SDS011;703;51.162;13.574;2024-03-08T11:28:43;29.20;;;15.87;;
1416;SDS011;703;51.162;13.574;2024-03-08T11:33:35;19.07;;;17.03;;
1416;SDS011;703;51.162;13.574;2024-03-08T11:38:45;19.93;;;17.60;;
1416;SDS011;703;51.162;13.574;2024-03-08T11:41:17;20.47;;;16.13;;
1416;SDS011;703;51.162;13.574;2024-03-08T11:43:44;29.50;;;16.00;;
1416;SDS011;703;51.162;13.574;2024-03-08T11:46:11;24.57;;;16.53;;
1416;SDS011;703;51.162;13.574;2024-03-08T11:48:43;26.93;;;16.17;;
1416;SDS011;703;51.162;13.574;2024-03-08T11:51:12;24.77;;;16.47;;
1416;SDS011;703;51.162;13.574;2024-03-08T11:53:39;25.40;;;15.77;;
1416;SDS011;703;51.162;13.574;2024-03-08T11:56:09;18.67;;;15.73;;
1416;SDS011;703;51.162;13.574;2024-03-08T11:58:36;16.30;;;14.10;;
1416;SDS011;703;51.162;13.574;2024-03-08T12:01:05;21.17;;;15.73;;
1416;SDS011;703;51.162;13.574;2024-03-08T12:03:32;19.60;;;13.10;;
1416;SDS011;703;51.162;13.574;2024-03-08T12:05:58;16.00;;;14.30;;
1416;SDS011;703;51.162;13.574;2024-03-08T12:08:24;18.53;;;14.47;;
1416;SDS011;703;51.162;13.574;2024-03-08T12:10:53;17.70;;;14.27;;
1416;SDS011;703;51.162;13.574;2024-03-08T12:13:24;19.23;;;17.37;;
1416;SDS011;703;51.162;13.574;2024-03-08T12:15:50;18.00;;;16.10;;
1416;SDS011;703;51.162;13.574;2024-03-08T12:18:16;19.87;;;17.07;;
1416;SDS011;703;51.162;13.574;2024-03-08T12:20:42;25.47;;;19.73;;
1416;SDS011;703;51.162;13.574;2024-03-08T12:23:14;23.33;;;19.03;;
1416;SDS011;703;51.162;13.574;2024-03-08T12:25:41;25.60;;;19.13;;
1416;SDS011;703;51.162;13.574;2024-03-08T12:28:08;27.30;;;19.97;;
1416;SDS011;703;51.162;13.574;2024-03-08T12:30:50;32.60;;;19.50;;
1416;SDS011;703;51.162;13.574;2024-03-08T12:33:19;26.00;;;20.87;;
1416;SDS011;703;51.162;13.574;2024-03-08T12:35:51;30.60;;;21.87;;
1416;SDS011;703;51.162;13.574;2024-03-08T12:38:20;26.97;;;19.13;;
1416;SDS011;703;51.162;13.574;2024-03-08T12:40:55;26.00;;;22.63;;
1416;SDS011;703;51.162;13.574;2024-03-08T12:43:22;31.33;;;21.30;;
1416;SDS011;703;51.162;13.574;2024-03-08T12:45:48;31.13;;;20.30;;
1416;SDS011;703;51.162;13.574;2024-03-08T12:48:14;24.00;;;19.77;;
1416;SDS011;703;51.162;13.574;2024-03-08T12:50:44;27.63;;;18.63;;
1416;SDS011;703;51.162;13.574;2024-03-08T12:53:12;33.47;;;23.20;;
1416;SDS011;703;51.162;13.574;2024-03-08T12:55:38;35.87;;;24.23;;
1416;SDS011;703;51.162;13.574;2024-03-08T12:58:05;23.57;;;21.07;;
1416;SDS011;703;51.162;13.574;2024-03-08T13:00:32;27.50;;;19.80;;
1416;SDS011;703;51.162;13.574;2024-03-08T13:03:01;23.27;;;18.57;;
1416;SDS011;703;51.162;13.574;2024-03-08T13:05:27;25.63;;;19.03;;
1416;SDS011;703;51.162;13.574;2024-03-08T13:07:54;24.80;;;19.63;;
1416;SDS011;703;51.162;13.574;2024-03-08T13:10:20;29.17;;;20.73;;
1416;SDS011;703;51.162;13.574;2024-03-08T13:12:47;44.73;;;20.23;;
1416;SDS011;703;51.162;13.574;2024-03-08T13:15:13;28.47;;;18.63;;
1416;SDS011;703;51.162;13.574;2024-03-08T13:17:48;32.00;;;20.83;;
1416;SDS011;703;51.162;13.574;2024-03-08T13:20:14;29.87;;;23.13;;
1416;SDS011;703;51.162;13.574;2024-03-08T13:22:44;31.20;;;20.33;;
1416;SDS011;703;51.162;13.574;2024-03-08T13:25:12;39.07;;;22.83;;
1416;SDS011;703;51.162;13.574;2024-03-08T13:27:39;30.90;;;21.17;;
1416;SDS011;703;51.162;13.574;2024-03-08T13:30:06;29.03;;;20.53;;
1416;SDS011;703;51.162;13.574;2024-03-08T13:32:33;30.60;;;23.30;;
1416;SDS011;703;51.162;13.574;2024-03-08T13:34:58;27.30;;;20.23;;
1416;SDS011;703;51.162;13.574;2024-03-08T13:37:24;30.90;;;22.67;;
1416;SDS011;703;51.162;13.574;2024-03-08T13:39:51;41.93;;;20.50;;
1416;SDS011;703;51.162;13.574;2024-03-08T13:42:18;33.43;;;22.97;;
1416;SDS011;703;51.162;13.574;2024-03-08T13:47:11;25.87;;;21.07;;
1416;SDS011;703;51.162;13.574;2024-03-08T13:49:37;42.90;;;23.40;;
1416;SDS011;703;51.162;13.574;2024-03-08T13:52:03;38.77;;;24.23;;
1416;SDS011;703;51.162;13.574;2024-03-08T13:54:29;30.50;;;21.23;;
1416;SDS011;703;51.162;13.574;2024-03-08T13:56:56;24.57;;;20.17;;
1416;SDS011;703;51.162;13.574;2024-03-08T13:59:22;27.10;;;21.50;;
1416;SDS011;703;51.162;13.574;2024-03-08T14:01:54;26.23;;;20.53;;
1416;SDS011;703;51.162;13.574;2024-03-08T14:04:20;32.17;;;21.00;;
1416;SDS011;703;51.162;13.574;2024-03-08T14:06:46;31.60;;;22.90;;
1416;SDS011;703;51.162;13.574;2024-03-08T14:09:11;29.33;;;20.97;;
1416;SDS011;703;51.162;13.574;2024-03-08T14:11:44;34.50;;;19.93;;
1416;SDS011;703;51.162;13.574;2024-03-08T14:14:10;22.83;;;18.50;;
1416;SDS011;703;51.162;13.574;2024-03-08T14:16:37;26.10;;;20.60;;
1416;SDS011;703;51.162;13.574;2024-03-08T14:19:03;27.27;;;20.73;;
1416;SDS011;703;51.162;13.574;2024-03-08T14:21:30;26.17;;;22.10;;
1416;SDS011;703;51.162;13.574;2024-03-08T14:23:56;29.70;;;21.40;;
1416;SDS011;703;51.162;13.574;2024-03-08T14:26:22;34.47;;;20.70;;
1416;SDS011;703;51.162;13.574;2024-03-08T14:28:48;25.10;;;21.07;;
1416;SDS011;703;51.162;13.574;2024-03-08T14:31:19;35.40;;;21.00;;
1416;SDS011;703;51.162;13.574;2024-03-08T14:33:45;32.97;;;22.20;;
1416;SDS011;703;51.162;13.574;2024-03-08T14:36:14;31.40;;;23.00;;
1416;SDS011;703;51.162;13.574;2024-03-08T14:38:42;34.43;;;21.83;;
1416;SDS011;703;51.162;13.574;2024-03-08T14:41:08;35.40;;;25.13;;
1416;SDS011;703;51.162;13.574;2024-03-08T14:43:34;28.70;;;21.47;;
1416;SDS011;703;51.162;13.574;2024-03-08T14:46:00;24.17;;;20.00;;
1416;SDS011;703;51.162;13.574;2024-03-08T14:48:25;26.20;;;20.87;;
1416;SDS011;703;51.162;13.574;2024-03-08T14:50:52;21.47;;;19.40;;
1416;SDS011;703;51.162;13.574;2024-03-08T14:53:18;37.57;;;21.70;;
1416;SDS011;703;51.162;13.574;2024-03-08T14:55:43;32.60;;;18.63;;
1416;SDS011;703;51.162;13.574;2024-03-08T14:58:12;30.00;;;18.27;;
1416;SDS011;703;51.162;13.574;2024-03-08T15:00:37;28.43;;;18.00;;